createdAt,value
2022-11-21T00:01:30.821Z,97100.14
2022-11-21T00:03:58.742Z,97103.36
2022-11-21T00:06:27.077Z,97102.14
2022-11-21T00:08:56.573Z,97103.36
2022-11-21T00:11:24.579Z,97097.36
2022-11-21T00:13:52.495Z,97092.77
2022-11-21T00:16:20.487Z,97093.79
2022-11-21T00:18:48.404Z,97090.36
2022-11-21T00:21:18.437Z,97085.14
2022-11-21T00:23:47.385Z,97082.58
2022-11-21T00:26:16.638Z,97085.86
2022-11-21T00:28:45.524Z,97076.99
2022-11-21T00:31:22.046Z,97073.51
2022-11-21T00:33:49.959Z,97066.73
2022-11-21T00:36:18.028Z,97061.57
2022-11-21T00:38:46.339Z,97054.67
2022-11-21T00:41:14.295Z,97050.59
2022-11-21T00:43:42.182Z,97048.42
2022-11-21T00:46:10.087Z,97047.43
2022-11-21T00:48:38.351Z,97044.63
2022-11-21T00:51:06.285Z,97049.00
2022-11-21T00:53:34.663Z,97048.39
2022-11-21T00:56:02.601Z,97043.40
2022-11-21T00:58:30.562Z,97037.11
2022-11-21T01:01:11.174Z,97032.96
2022-11-21T01:03:40.943Z,97024.65
2022-11-21T01:06:15.846Z,97019.38
2022-11-21T01:08:44.947Z,97014.75
2022-11-21T01:11:18.314Z,97011.94
2022-11-21T01:13:46.976Z,97016.75
2022-11-21T01:16:22.615Z,97018.88
2022-11-21T01:18:51.327Z,97023.70
2022-11-21T01:21:25.001Z,97027.29
2022-11-21T01:23:53.727Z,97027.14
2022-11-21T01:26:24.247Z,97024.58
2022-11-21T01:28:52.791Z,97020.88
2022-11-21T01:31:26.332Z,97014.34
2022-11-21T01:33:54.581Z,97014.05
2022-11-21T01:36:25.050Z,97015.50
2022-11-21T01:38:55.316Z,97020.12
2022-11-21T01:41:31.420Z,97015.70
2022-11-21T01:44:09.830Z,97019.78
2022-11-21T01:46:37.696Z,97015.87
2022-11-21T01:49:10.905Z,97015.66
2022-11-21T01:51:56.924Z,97015.47
2022-11-21T01:54:34.010Z,97014.08
2022-11-21T01:57:06.954Z,97020.35
2022-11-21T01:59:44.571Z,97018.05
2022-11-21T02:02:15.714Z,97020.96
2022-11-21T02:04:44.783Z,97024.19
2022-11-21T02:07:14.868Z,97026.73
2022-11-21T02:09:46.711Z,97029.63
2022-11-21T02:12:38.446Z,97029.05
2022-11-21T02:15:07.508Z,97032.42
2022-11-21T02:17:35.410Z,97031.73
2022-11-21T02:20:06.987Z,97027.84
2022-11-21T02:22:51.337Z,97027.77
2022-11-21T02:25:22.424Z,97029.48
2022-11-21T02:27:55.359Z,97024.31
2022-11-21T02:30:23.770Z,97020.65
2022-11-21T02:32:51.711Z,97023.44
2022-11-21T02:35:20.175Z,97019.58
2022-11-21T02:37:58.386Z,97013.52
2022-11-21T02:40:32.637Z,97013.48
2022-11-21T02:43:10.680Z,97014.78
2022-11-21T02:45:42.298Z,97014.59
2022-11-21T02:48:10.878Z,97011.66
2022-11-21T02:50:41.351Z,97011.64
2022-11-21T02:53:13.274Z,97005.17
2022-11-21T02:55:42.380Z,97012.26
2022-11-21T02:58:11.094Z,97012.80
2022-11-21T03:00:40.956Z,97011.46
2022-11-21T03:03:09.386Z,97011.72
2022-11-21T03:05:39.159Z,97015.81
2022-11-21T03:08:07.684Z,97012.49
2022-11-21T03:10:36.265Z,97010.27
2022-11-21T03:13:04.254Z,97009.23
2022-11-21T03:15:34.571Z,97006.49
2022-11-21T03:18:03.156Z,97000.36
2022-11-21T03:20:32.700Z,96999.80
2022-11-21T03:23:01.385Z,97000.82
2022-11-21T03:25:30.342Z,96999.58
2022-11-21T03:27:58.369Z,96993.07
2022-11-21T03:30:27.407Z,96993.35
2022-11-21T03:32:56.913Z,96995.85
2022-11-21T03:35:25.857Z,96994.42
2022-11-21T03:37:53.920Z,96991.02
2022-11-21T03:40:21.870Z,96991.05
2022-11-21T03:42:49.912Z,96981.05
2022-11-21T03:45:17.921Z,96978.81
2022-11-21T03:47:45.824Z,96971.39
2022-11-21T03:50:17.399Z,96974.33
2022-11-21T03:52:45.322Z,96973.70
2022-11-21T03:55:13.231Z,96971.56
2022-11-21T03:57:41.202Z,96967.24
2022-11-21T04:00:09.920Z,96966.37
2022-11-21T04:02:38.203Z,96959.39
2022-11-21T04:05:06.184Z,96954.59
2022-11-21T04:07:34.091Z,96950.27
2022-11-21T04:10:02.028Z,96949.43
2022-11-21T04:12:29.852Z,96944.67
2022-11-21T04:14:57.708Z,96942.92
2022-11-21T04:17:25.603Z,96940.90
2022-11-21T04:19:53.499Z,96936.54
2022-11-21T04:22:21.391Z,96932.71
2022-11-21T04:24:49.308Z,96935.75
2022-11-21T04:27:17.198Z,96941.91
2022-11-21T04:29:45.071Z,96939.70
2022-11-21T04:32:13.045Z,96939.95
2022-11-21T04:34:42.199Z,96937.98
2022-11-21T04:37:11.760Z,96941.10
2022-11-21T04:39:39.791Z,96940.05
2022-11-21T04:42:07.691Z,96936.52
2022-11-21T04:44:35.611Z,96928.66
2022-11-21T04:47:05.548Z,96935.10
2022-11-21T04:49:33.887Z,96935.86
2022-11-21T04:52:01.912Z,96937.33
2022-11-21T04:54:30.257Z,96936.97
2022-11-21T04:56:58.375Z,96931.79
2022-11-21T04:59:26.253Z,96932.02
2022-11-21T05:01:54.189Z,96930.96
2022-11-21T05:04:22.171Z,96940.60
2022-11-21T05:06:50.281Z,96935.64
2022-11-21T05:09:18.173Z,96922.77
2022-11-21T05:12:04.830Z,96922.85
2022-11-21T05:14:32.716Z,96923.73
2022-11-21T05:17:00.663Z,96918.48
2022-11-21T05:19:28.539Z,96917.93
2022-11-21T05:21:56.692Z,96913.51
2022-11-21T05:24:24.617Z,96910.52
2022-11-21T05:26:52.528Z,96902.54
2022-11-21T05:29:25.178Z,96895.95
2022-11-21T05:31:56.007Z,96894.50
2022-11-21T05:34:23.936Z,96901.34
2022-11-21T05:37:00.823Z,96903.61
2022-11-21T05:39:28.867Z,96896.00
2022-11-21T05:42:02.517Z,96893.25
2022-11-21T05:44:31.350Z,96891.33
2022-11-21T05:46:59.468Z,96889.89
2022-11-21T05:49:27.446Z,96889.38
2022-11-21T05:51:55.340Z,96883.55
2022-11-21T05:54:23.198Z,96882.66
2022-11-21T05:56:51.142Z,96877.14
2022-11-21T05:59:19.027Z,96880.95
2022-11-21T06:02:05.423Z,96876.29
2022-11-21T06:04:33.398Z,96867.11
2022-11-21T06:07:01.346Z,96869.45
2022-11-21T06:09:29.288Z,96869.55
2022-11-21T06:11:57.174Z,96867.64
2022-11-21T06:14:25.218Z,96863.48
2022-11-21T06:16:53.186Z,96861.95
2022-11-21T06:19:21.098Z,96862.08
2022-11-21T06:21:49.044Z,96861.36
2022-11-21T06:24:21.753Z,96860.94
2022-11-21T06:26:50.138Z,96866.14
2022-11-21T06:29:18.108Z,96865.27
2022-11-21T06:31:46.033Z,96869.79
2022-11-21T06:34:14.043Z,96860.63
2022-11-21T06:36:42.217Z,96865.69
2022-11-21T06:39:10.369Z,96867.89
2022-11-21T06:41:38.316Z,96874.00
2022-11-21T06:44:06.294Z,96875.09
2022-11-21T06:46:34.195Z,96875.83
2022-11-21T06:49:02.215Z,96876.95
2022-11-21T06:51:30.173Z,96877.24
2022-11-21T06:53:59.258Z,96877.73
2022-11-21T06:56:29.652Z,96872.55
2022-11-21T06:58:59.258Z,96872.74
2022-11-21T07:01:27.563Z,96874.19
2022-11-21T07:03:55.674Z,96870.51
2022-11-21T07:06:23.807Z,96868.70
2022-11-21T07:11:43.609Z,96859.63
2022-11-21T07:14:11.806Z,96861.98
2022-11-21T07:16:39.740Z,96859.84
2022-11-21T07:19:07.733Z,96855.79
2022-11-21T07:21:35.722Z,96856.35
2022-11-21T07:24:34.173Z,96856.61
2022-11-21T07:27:02.526Z,96853.84
2022-11-21T07:29:30.805Z,96854.05
2022-11-21T07:31:58.868Z,96848.27
2022-11-21T07:34:26.764Z,96849.67
2022-11-21T07:36:54.985Z,96845.11
2022-11-21T07:39:22.975Z,96841.37
2022-11-21T07:41:50.890Z,96841.44
2022-11-21T07:44:18.816Z,96837.52
2022-11-21T07:46:46.705Z,96834.83
2022-11-21T07:49:14.645Z,96835.91
2022-11-21T07:51:42.555Z,96832.83
2022-11-21T07:54:10.487Z,96824.95
2022-11-21T07:56:38.384Z,96819.15
2022-11-21T07:59:06.289Z,96815.26
2022-11-21T08:01:34.216Z,96816.62
2022-11-21T08:04:02.175Z,96814.23
2022-11-21T08:06:30.069Z,96812.40
2022-11-21T08:08:57.991Z,96808.91
2022-11-21T08:11:26.067Z,96804.21
2022-11-21T08:13:54.079Z,96803.00
2022-11-21T08:16:23.339Z,96800.73
2022-11-21T08:18:51.324Z,96802.46
2022-11-21T08:21:20.182Z,96800.15
2022-11-21T08:23:48.751Z,96800.16
2022-11-21T08:26:17.011Z,96801.71
2022-11-21T08:28:45.022Z,96800.77
2022-11-21T08:31:12.965Z,96803.77
2022-11-21T08:33:40.951Z,96800.67
2022-11-21T08:36:09.211Z,96802.08
2022-11-21T08:38:37.195Z,96805.21
2022-11-21T08:41:23.814Z,96808.62
2022-11-21T08:43:51.752Z,96802.42
2022-11-21T08:46:19.666Z,96796.90
2022-11-21T08:48:47.545Z,96798.55
2022-11-21T08:51:15.496Z,96797.34
2022-11-21T08:53:43.486Z,96793.14
2022-11-21T08:56:11.384Z,96792.65
2022-11-21T08:58:39.359Z,96794.77
2022-11-21T09:01:07.263Z,96794.23
2022-11-21T09:03:35.462Z,96799.68
2022-11-21T09:06:03.447Z,96806.08
2022-11-21T09:08:31.776Z,96810.52
2022-11-21T09:11:07.991Z,96809.45
2022-11-21T09:13:37.195Z,96810.92
2022-11-21T09:16:24.139Z,96813.68
2022-11-21T09:18:53.077Z,96808.73
2022-11-21T09:21:21.960Z,96810.41
2022-11-21T09:23:49.851Z,96809.86
2022-11-21T09:26:17.735Z,96810.92
2022-11-21T09:28:46.855Z,96815.30
2022-11-21T09:31:14.973Z,96816.33
2022-11-21T09:33:42.887Z,96815.55
2022-11-21T09:36:10.838Z,96813.42
2022-11-21T09:38:39.206Z,96815.81
2022-11-21T09:41:41.927Z,96813.32
2022-11-21T09:44:25.636Z,96815.35
2022-11-21T09:47:04.593Z,96810.09
2022-11-21T09:49:38.633Z,96809.62
2022-11-21T09:52:07.949Z,96805.91
2022-11-21T09:54:46.045Z,96800.48
2022-11-21T09:57:17.234Z,96799.33
2022-11-21T09:59:47.133Z,96795.34
2022-11-21T10:02:18.324Z,96794.79
2022-11-21T10:04:47.900Z,96792.81
2022-11-21T10:07:25.008Z,96791.62
2022-11-21T10:10:14.710Z,96789.61
2022-11-21T10:12:51.770Z,96786.64
2022-11-21T10:15:25.596Z,96789.92
2022-11-21T10:18:21.175Z,96791.16
2022-11-21T10:21:07.784Z,96785.89
2022-11-21T10:24:10.709Z,96781.89
2022-11-21T10:26:51.620Z,96781.56
2022-11-21T10:29:34.775Z,96778.36
2022-11-21T10:32:11.758Z,96774.55
2022-11-21T10:34:40.170Z,96772.30
2022-11-21T10:37:26.331Z,96771.77
2022-11-21T10:39:56.762Z,96774.85
2022-11-21T10:42:36.289Z,96768.90
2022-11-21T10:45:17.325Z,96768.98
2022-11-21T10:47:50.347Z,96771.45
2022-11-21T10:50:58.809Z,96769.36
2022-11-21T10:54:07.295Z,96767.98
2022-11-21T10:56:37.148Z,96765.77
2022-11-21T10:59:19.204Z,96771.52
2022-11-21T11:01:59.318Z,96764.67
2022-11-21T11:04:33.551Z,96760.14
2022-11-21T11:07:24.327Z,96758.70
2022-11-21T11:09:53.589Z,96763.25
2022-11-21T11:12:24.107Z,96760.27
2022-11-21T11:14:55.589Z,96756.31
2022-11-21T11:17:29.957Z,96757.61
2022-11-21T11:20:33.746Z,96754.11
2022-11-21T11:23:17.191Z,96750.74
2022-11-21T11:25:59.235Z,96746.04
2022-11-21T11:28:35.593Z,96743.13
2022-11-21T11:31:03.745Z,96741.70
2022-11-21T11:33:51.282Z,96746.70
2022-11-21T11:36:52.469Z,96746.64
2022-11-21T11:39:32.580Z,96744.74
2022-11-21T11:42:25.170Z,96745.16
2022-11-21T11:45:33.179Z,96746.48
2022-11-21T11:48:08.115Z,96747.61
2022-11-21T11:51:13.134Z,96745.52
2022-11-21T11:53:47.006Z,96744.86
2022-11-21T11:56:22.728Z,96742.48
2022-11-21T11:59:28.929Z,96739.45
2022-11-21T12:02:11.664Z,96743.00
2022-11-21T12:04:51.016Z,96739.07
2022-11-21T12:10:14.138Z,96738.57
2022-11-21T12:12:45.818Z,96740.39
2022-11-21T12:15:45.470Z,96734.04
2022-11-21T12:18:22.343Z,96726.55
2022-11-21T12:21:14.476Z,96726.89
2022-11-21T12:23:52.747Z,96722.88
2022-11-21T12:26:25.321Z,96722.10
2022-11-21T12:29:14.226Z,96723.83
2022-11-21T12:32:04.479Z,96726.51
2022-11-21T12:34:41.457Z,96724.65
2022-11-21T12:37:47.220Z,96727.20
2022-11-21T12:40:28.744Z,96722.79
2022-11-21T12:43:37.259Z,96719.74
2022-11-21T12:46:13.750Z,96717.14
2022-11-21T12:49:15.271Z,96715.33
2022-11-21T12:52:23.755Z,96712.46
2022-11-21T12:55:26.286Z,96709.80
2022-11-21T12:58:23.649Z,96716.58
2022-11-21T13:00:51.560Z,96712.35
2022-11-21T13:03:39.918Z,96711.83
2022-11-21T13:06:16.491Z,96713.07
2022-11-21T13:08:48.731Z,96717.11
2022-11-21T13:11:38.294Z,96716.29
2022-11-21T13:14:15.712Z,96715.48
2022-11-21T13:16:50.902Z,96715.59
2022-11-21T13:19:26.640Z,96713.94
2022-11-21T13:21:55.148Z,96713.77
2022-11-21T13:24:44.709Z,96714.46
2022-11-21T13:27:40.937Z,96713.43
2022-11-21T13:30:11.778Z,96716.66
2022-11-21T13:32:50.858Z,96711.92
2022-11-21T13:35:19.311Z,96713.59
2022-11-21T13:37:50.363Z,96711.98
2022-11-21T13:40:27.430Z,96709.97
2022-11-21T13:43:32.519Z,96713.58
2022-11-21T13:45:59.640Z,96710.39
2022-11-21T13:48:30.786Z,96711.35
2022-11-21T13:51:01.528Z,96711.09
2022-11-21T13:53:41.743Z,96707.04
2022-11-21T13:56:11.688Z,96711.70
2022-11-21T13:59:11.120Z,96711.33
2022-11-21T14:01:45.222Z,96709.06
2022-11-21T14:04:23.097Z,96707.29
2022-11-21T14:06:51.183Z,96711.64
2022-11-21T14:09:24.615Z,96714.68
2022-11-21T14:11:56.934Z,96715.97
2022-11-21T14:14:28.285Z,96718.09
2022-11-21T14:17:09.476Z,96715.36
2022-11-21T14:19:37.591Z,96715.94
2022-11-21T14:22:05.546Z,96719.57
2022-11-21T14:24:33.649Z,96718.27
2022-11-21T14:27:05.923Z,96718.36
2022-11-21T14:29:41.020Z,96714.37
2022-11-21T14:32:15.581Z,96713.10
2022-11-21T14:34:43.438Z,96709.83
2022-11-21T14:37:13.220Z,96713.91
2022-11-21T14:39:44.703Z,96714.39
2022-11-21T14:42:16.491Z,96717.72
2022-11-21T14:44:44.657Z,96720.04
2022-11-21T14:47:25.820Z,96723.77
2022-11-21T14:49:59.589Z,96725.13
2022-11-21T14:52:33.047Z,96721.48
2022-11-21T14:57:53.396Z,96728.27
2022-11-21T15:03:23.824Z,96729.91
2022-11-21T15:06:06.309Z,96736.13
2022-11-21T15:09:14.868Z,96732.88
2022-11-21T15:11:36.819Z,96732.27
2022-11-21T15:14:18.553Z,96732.90
2022-11-21T15:16:50.198Z,96730.36
2022-11-21T15:19:23.939Z,96726.95
2022-11-21T15:22:01.184Z,96724.68
2022-11-21T15:24:42.849Z,96724.80
2022-11-21T15:27:44.409Z,96721.91
2022-11-21T15:30:25.320Z,96726.33
2022-11-21T15:32:59.785Z,96724.40
2022-11-21T15:35:32.159Z,96727.86
2022-11-21T15:38:00.408Z,96728.33
2022-11-21T15:40:28.352Z,96728.02
2022-11-21T15:42:56.301Z,96728.60
2022-11-21T15:45:26.912Z,96730.59
2022-11-21T15:47:55.986Z,96731.49
2022-11-21T15:50:25.125Z,96730.32
2022-11-21T15:52:54.691Z,96735.61
2022-11-21T15:55:31.651Z,96731.73
2022-11-21T15:58:04.180Z,96732.45
2022-11-21T16:00:40.179Z,96733.45
2022-11-21T16:03:15.686Z,96733.16
2022-11-21T16:05:43.603Z,96732.57
2022-11-21T16:08:17.036Z,96737.31
2022-11-21T16:10:49.524Z,96734.52
2022-11-21T16:13:23.999Z,96732.77
2022-11-21T16:15:52.010Z,96724.77
2022-11-21T16:18:26.739Z,96724.08
2022-11-21T16:21:08.419Z,96727.77
2022-11-21T16:23:36.641Z,96727.53
2022-11-21T16:26:05.897Z,96729.91
2022-11-21T16:28:34.338Z,96722.86
2022-11-21T16:31:03.403Z,96725.80
2022-11-21T16:33:32.939Z,96724.31
2022-11-21T16:36:00.870Z,96726.12
2022-11-21T16:38:29.905Z,96731.65
2022-11-21T16:41:04.470Z,96736.52
2022-11-21T16:43:32.336Z,96733.77
2022-11-21T16:46:08.275Z,96735.58
2022-11-21T16:48:36.264Z,96734.98
2022-11-21T16:51:20.916Z,96734.06
2022-11-21T16:53:49.794Z,96733.52
2022-11-21T16:56:17.972Z,96734.16
2022-11-21T16:58:47.261Z,96732.67
2022-11-21T17:01:21.216Z,96727.41
2022-11-21T17:03:50.169Z,96729.34
2022-11-21T17:06:21.516Z,96727.14
2022-11-21T17:08:50.034Z,96737.54
2022-11-21T17:11:21.163Z,96743.61
2022-11-21T17:13:51.185Z,96739.35
2022-11-21T17:16:21.207Z,96740.55
2022-11-21T17:18:57.237Z,96740.55
2022-11-21T17:21:31.526Z,96745.54
2022-11-21T17:24:05.186Z,96746.10
2022-11-21T17:26:41.306Z,96741.20
2022-11-21T17:29:31.794Z,96742.61
2022-11-21T17:32:07.972Z,96745.73
2022-11-21T17:34:44.097Z,96742.85
2022-11-21T17:37:52.167Z,96740.34
2022-11-21T17:41:03.897Z,96739.91
2022-11-21T17:44:20.694Z,96735.50
2022-11-21T17:50:13.786Z,96741.60
2022-11-21T17:52:50.382Z,96743.67
2022-11-21T17:55:36.530Z,96747.36
2022-11-21T17:58:13.086Z,96746.81
2022-11-21T18:00:47.581Z,96748.93
2022-11-21T18:03:15.867Z,96745.88
2022-11-21T18:05:47.521Z,96748.63
2022-11-21T18:08:19.364Z,96747.95
2022-11-21T18:10:53.498Z,96752.17
2022-11-21T18:13:21.404Z,96754.81
2022-11-21T18:15:49.344Z,96755.48
2022-11-21T18:18:17.410Z,96756.27
2022-11-21T18:20:45.666Z,96759.54
2022-11-21T18:23:13.565Z,96756.84
2022-11-21T18:25:41.921Z,96756.54
2022-11-21T18:28:10.236Z,96758.81
2022-11-21T18:30:38.175Z,96762.10
2022-11-21T18:33:06.718Z,96760.90
2022-11-21T18:35:36.030Z,96758.80
2022-11-21T18:38:04.565Z,96759.20
2022-11-21T18:40:32.552Z,96755.39
2022-11-21T18:43:00.430Z,96752.05
2022-11-21T18:45:28.396Z,96756.78
2022-11-21T18:47:56.301Z,96754.63
2022-11-21T18:50:24.351Z,96752.73
2022-11-21T18:52:53.521Z,96757.02
2022-11-21T18:55:23.091Z,96753.35
2022-11-21T18:57:50.988Z,96754.70
2022-11-21T19:00:19.110Z,96755.59
2022-11-21T19:02:48.034Z,96754.60
2022-11-21T19:05:20.329Z,96751.31
2022-11-21T19:07:48.710Z,96750.98
2022-11-21T19:10:42.056Z,96751.81
2022-11-21T19:13:05.913Z,96758.14
2022-11-21T19:15:38.373Z,96760.92
2022-11-21T19:18:06.391Z,96762.08
2022-11-21T19:20:35.735Z,96763.79
2022-11-21T19:23:04.018Z,96769.11
2022-11-21T19:25:32.768Z,96768.96
2022-11-21T19:28:01.241Z,96771.83
2022-11-21T19:30:29.396Z,96776.52
2022-11-21T19:37:40.493Z,96778.27
2022-11-21T19:40:09.141Z,96776.23
2022-11-21T19:42:37.790Z,96779.81
2022-11-21T19:45:07.078Z,96782.58
2022-11-21T19:47:35.604Z,96783.45
2022-11-21T19:50:03.687Z,96785.18
2022-11-21T19:52:33.221Z,96786.19
2022-11-21T19:55:01.090Z,96790.98
2022-11-21T19:57:29.127Z,96791.36
2022-11-21T19:59:57.069Z,96791.39
2022-11-21T20:02:25.007Z,96796.52
2022-11-21T20:04:54.320Z,96796.38
2022-11-21T20:07:22.441Z,96792.46
2022-11-21T20:09:50.403Z,96794.05
2022-11-21T20:12:18.334Z,96800.98
2022-11-21T20:14:46.238Z,96799.04
2022-11-21T20:17:14.119Z,96802.73
2022-11-21T20:19:45.302Z,96805.44
2022-11-21T20:22:18.778Z,96804.02
2022-11-21T20:24:51.564Z,96811.34
2022-11-21T20:27:19.904Z,96812.11
2022-11-21T20:29:47.986Z,96811.10
2022-11-21T20:32:15.970Z,96805.73
2022-11-21T20:34:43.922Z,96814.35
2022-11-21T20:37:11.868Z,96813.67
2022-11-21T20:39:39.745Z,96815.74
2022-11-21T20:42:08.312Z,96817.04
2022-11-21T20:45:41.477Z,96822.13
2022-11-21T20:47:26.091Z,96818.20
2022-11-21T20:49:53.971Z,96814.92
2022-11-21T20:55:10.122Z,96822.25
2022-11-21T20:57:38.032Z,96820.98
2022-11-21T21:00:06.606Z,96817.86
2022-11-21T21:02:34.508Z,96817.68
2022-11-21T21:05:02.451Z,96818.16
2022-11-21T21:07:30.453Z,96820.77
2022-11-21T21:09:59.520Z,96824.62
2022-11-21T21:12:27.642Z,96820.27
2022-11-21T21:14:55.846Z,96822.75
2022-11-21T21:17:23.762Z,96829.40
2022-11-21T21:19:51.597Z,96826.11
2022-11-21T21:22:19.541Z,96826.85
2022-11-21T21:24:47.601Z,96828.11
2022-11-21T21:27:15.574Z,96823.93
2022-11-21T21:29:43.626Z,96823.26
2022-11-21T21:32:11.498Z,96823.95
2022-11-21T21:34:39.510Z,96822.07
2022-11-21T21:37:07.443Z,96822.58
2022-11-21T21:39:35.377Z,96820.30
2022-11-21T21:42:03.472Z,96815.55
2022-11-21T21:44:33.522Z,96812.13
2022-11-21T21:47:01.975Z,96810.89
2022-11-21T21:49:29.937Z,96814.85
2022-11-21T21:51:57.934Z,96808.70
2022-11-21T21:54:25.935Z,96808.63
2022-11-21T21:56:53.823Z,96807.21
2022-11-21T21:59:21.796Z,96813.34
2022-11-21T22:01:49.804Z,96817.85
2022-11-21T22:04:17.799Z,96818.35
2022-11-21T22:06:45.696Z,96817.77
2022-11-21T22:09:13.639Z,96817.42
2022-11-21T22:11:41.612Z,96818.80
2022-11-21T22:14:15.267Z,96818.26
2022-11-21T22:16:43.590Z,96816.11
2022-11-21T22:19:12.020Z,96813.98
2022-11-21T22:21:40.284Z,96813.81
2022-11-21T22:24:29.490Z,96811.32
2022-11-21T22:26:57.578Z,96809.00
2022-11-21T22:29:25.640Z,96812.38
2022-11-21T22:31:53.812Z,96807.23
2022-11-21T22:34:22.101Z,96806.71
2022-11-21T22:36:50.103Z,96801.63
2022-11-21T22:39:18.289Z,96801.00
2022-11-21T22:41:46.339Z,96802.60
2022-11-21T22:44:14.360Z,96798.48
2022-11-21T22:46:42.381Z,96794.08
2022-11-21T22:49:10.318Z,96793.06
2022-11-21T22:51:38.245Z,96792.33
2022-11-21T22:54:06.269Z,96788.83
2022-11-21T22:56:34.509Z,96787.98
2022-11-21T22:59:02.435Z,96786.59
2022-11-21T23:01:33.022Z,96787.63
2022-11-21T23:04:01.534Z,96781.65
2022-11-21T23:06:29.483Z,96777.56
2022-11-21T23:08:57.664Z,96774.98
2022-11-21T23:11:28.516Z,96772.60
2022-11-21T23:13:56.973Z,96767.91
2022-11-21T23:16:26.125Z,96767.89
2022-11-21T23:19:02.705Z,96767.44
2022-11-21T23:22:00.209Z,96767.23
2022-11-21T23:24:33.766Z,96763.14
2022-11-21T23:27:01.997Z,96762.48
2022-11-21T23:29:30.293Z,96763.70
2022-11-21T23:31:58.437Z,96764.60
2022-11-21T23:34:26.448Z,96763.39
2022-11-21T23:36:54.378Z,96754.70
2022-11-21T23:39:22.341Z,96751.00
2022-11-21T23:41:50.275Z,96745.14
2022-11-21T23:44:18.221Z,96745.45
2022-11-21T23:46:46.106Z,96741.34
2022-11-21T23:49:14.021Z,96736.96
2022-11-21T23:51:41.903Z,96736.30
2022-11-21T23:54:09.808Z,96740.67
2022-11-21T23:56:37.691Z,96743.40
2022-11-21T23:59:05.609Z,96747.16
